Time;durP1;ratioP1;P1;durP2;ratioP2;P2;SDS_P1;SDS_P2;PMS_P1;PMS_P2;Temp;Humidity;BMP_temperature;BMP_pressure;BME280_temperature;BME280_humidity;BME280_pressure;Samples;Min_cycle;Max_cycle;Signal;HPM_P1;HPM_P2
2024/01/12 00:01:23;;;;;;;8.47;4.63;;;;;;;-12.26;100.00;101606.84;5046952;28;20075;-73
2024/01/12 00:03:50;;;;;;;5.50;4.60;;;;;;;-12.07;100.00;101625.69;5041401;28;20111;-72
2024/01/12 00:06:15;;;;;;;5.88;5.32;;;;;;;-12.45;100.00;101563.19;5045375;28;20064;-73
2024/01/12 00:08:41;;;;;;;6.57;4.93;;;;;;;-12.29;100.00;101596.56;5049968;28;20045;-73
2024/01/12 00:11:08;;;;;;;5.03;4.60;;;;;;;-12.16;100.00;101632.50;5052349;28;20514;-70
2024/01/12 00:13:34;;;;;;;5.10;4.32;;;;;;;-12.18;100.00;101635.06;5045231;28;20052;-75
2024/01/12 00:16:06;;;;;;;8.13;4.87;;;;;;;-12.18;100.00;101623.94;5048980;28;20442;-74
2024/01/12 00:18:32;;;;;;;4.25;3.85;;;;;;;-12.32;100.00;101596.56;5046925;28;20076;-71
2024/01/12 00:20:58;;;;;;;3.78;3.45;;;;;;;-12.23;100.00;101619.66;5048732;28;20492;-70
2024/01/12 00:23:23;;;;;;;8.53;4.27;;;;;;;-12.30;100.00;101604.28;5036767;28;20041;-71
2024/01/12 00:25:49;;;;;;;5.70;3.80;;;;;;;-12.20;100.00;101629.09;5037075;28;20084;-72
2024/01/12 00:28:14;;;;;;;7.30;4.67;;;;;;;-12.46;100.00;101576.88;5043499;28;20537;-71
2024/01/12 00:30:40;;;;;;;4.17;3.87;;;;;;;-12.63;100.00;101551.19;5031964;28;20040;-72
2024/01/12 00:33:05;;;;;;;6.23;3.57;;;;;;;-12.63;100.00;101548.63;5049971;28;20524;-74
2024/01/12 00:35:31;;;;;;;5.80;4.00;;;;;;;-12.35;100.00;101601.72;5031991;28;20139;-75
2024/01/12 00:37:57;;;;;;;9.53;4.70;;;;;;;-12.54;100.00;101569.16;5043562;28;20041;-74
2024/01/12 00:40:23;;;;;;;8.83;4.60;;;;;;;-12.33;100.00;101602.56;5051948;28;20064;-72
2024/01/12 00:42:52;;;;;;;8.90;8.00;;;;;;;-12.38;100.00;101596.56;5045611;28;20045;-72
2024/01/12 00:45:17;;;;;;;6.63;4.30;;;;;;;-12.29;100.00;101611.97;5041032;28;20487;-72
2024/01/12 00:47:43;;;;;;;4.67;4.20;;;;;;;-12.47;100.00;101578.56;5042896;28;20048;-74
2024/01/12 00:50:09;;;;;;;14.63;4.73;;;;;;;-12.42;100.00;101589.72;5041232;28;20079;-75
2024/01/12 00:52:35;;;;;;;7.13;4.40;;;;;;;-12.43;100.00;101587.13;5034340;28;20405;-71
2024/01/12 00:55:01;;;;;;;5.73;4.27;;;;;;;-12.46;100.00;101577.72;5035857;28;20035;-71
2024/01/12 00:57:26;;;;;;;4.17;3.87;;;;;;;-12.32;100.00;101591.44;5042893;28;20055;-72
2024/01/12 00:59:52;;;;;;;4.93;4.53;;;;;;;-12.74;100.00;101525.50;5042458;28;20443;-71
2024/01/12 01:02:17;;;;;;;5.27;3.63;;;;;;;-12.35;100.00;101595.72;5041483;28;20037;-73
2024/01/12 01:04:43;;;;;;;4.87;4.27;;;;;;;-12.50;100.00;101576.00;5038638;28;20033;-73
2024/01/12 01:07:08;;;;;;;7.83;3.70;;;;;;;-12.51;100.00;101576.88;5042198;28;20057;-71
2024/01/12 01:09:34;;;;;;;6.87;5.03;;;;;;;-12.53;100.00;101570.88;5038632;28;20043;-72
2024/01/12 01:12:00;;;;;;;5.03;4.57;;;;;;;-12.43;100.00;101582.88;5044695;28;20124;-70
2024/01/12 01:14:26;;;;;;;7.33;5.13;;;;;;;-12.43;100.00;101572.63;5051341;28;20079;-72
2024/01/12 01:16:53;;;;;;;13.52;4.75;;;;;;;-12.57;100.00;101538.38;5042070;28;20108;-71
2024/01/12 01:19:19;;;;;;;4.10;3.40;;;;;;;-12.32;100.00;101591.44;5040465;28;20048;-75
2024/01/12 01:21:45;;;;;;;5.50;4.95;;;;;;;-12.30;100.00;101581.16;5041759;28;20461;-71
2024/01/12 01:24:10;;;;;;;7.03;5.03;;;;;;;-12.36;100.00;101571.75;5039554;28;20035;-73
2024/01/12 01:26:36;;;;;;;6.77;4.70;;;;;;;-12.44;100.00;101555.47;5041058;28;20388;-71
2024/01/12 01:29:02;;;;;;;4.20;3.90;;;;;;;-12.55;100.00;101546.94;5031533;28;20045;-72
2024/01/12 01:31:28;;;;;;;4.63;3.92;;;;;;;-12.32;100.00;101570.91;5046909;28;20079;-71
2024/01/12 01:33:53;;;;;;;5.03;4.30;;;;;;;-12.33;100.00;101564.06;5042642;28;20115;-72
2024/01/12 01:36:19;;;;;;;8.23;5.93;;;;;;;-12.41;100.00;101554.66;5046466;28;20403;-72
2024/01/12 01:38:44;;;;;;;6.63;4.63;;;;;;;-12.50;100.00;101555.47;5040238;28;20045;-72
2024/01/12 01:41:10;;;;;;;6.60;5.40;;;;;;;-12.53;100.00;101546.06;5030428;28;20037;-72
2024/01/12 01:43:36;;;;;;;5.07;4.10;;;;;;;-12.47;100.00;101562.31;5030635;28;20131;-71
2024/01/12 01:46:02;;;;;;;4.87;4.30;;;;;;;-12.62;100.00;101524.69;5046818;28;20045;-72
2024/01/12 01:48:28;;;;;;;7.43;4.63;;;;;;;-12.56;100.00;101545.22;5035755;28;20029;-73
2024/01/12 01:50:54;;;;;;;17.60;6.95;;;;;;;-12.56;100.00;101552.91;5039838;28;20052;-72
2024/01/12 01:53:20;;;;;;;5.57;5.07;;;;;;;-12.69;100.00;101522.97;5041811;28;20033;-72
2024/01/12 01:55:46;;;;;;;8.88;4.72;;;;;;;-12.80;100.00;101496.44;5042470;28;20295;-72
2024/01/12 01:58:12;;;;;;;15.40;4.93;;;;;;;-13.38;100.00;101409.22;5042128;28;20103;-72
2024/01/12 02:00:38;;;;;;;9.55;4.63;;;;;;;-12.72;100.00;101520.38;5038998;28;20053;-73
2024/01/12 02:03:04;;;;;;;7.72;4.00;;;;;;;-12.71;100.00;101504.16;5043268;28;20067;-71
2024/01/12 02:05:30;;;;;;;4.85;4.45;;;;;;;-12.63;100.00;101500.75;5046509;28;20024;-74
2024/01/12 02:07:57;;;;;;;4.93;4.60;;;;;;;-12.47;100.00;101521.25;5036847;28;20370;-75
2024/01/12 02:10:23;;;;;;;7.00;4.72;;;;;;;-12.53;100.00;101510.16;5046515;28;20270;-73
2024/01/12 02:12:49;;;;;;;6.95;5.15;;;;;;;-12.54;100.00;101502.44;5049339;28;20091;-73
2024/01/12 02:15:14;;;;;;;5.90;4.37;;;;;;;-12.39;100.00;101514.44;5035633;28;20445;-73
2024/01/12 02:17:43;;;;;;;5.30;4.80;;;;;;;-12.42;100.00;101507.59;5043518;28;20071;-72
2024/01/12 02:20:28;;;;;;;5.22;4.28;;;;;;;-12.47;100.00;101499.03;5037596;28;20824;-73
2024/01/12 02:22:54;;;;;;;6.13;5.50;;;;;;;-12.71;100.00;101445.16;5047299;28;20036;-72
2024/01/12 02:25:19;;;;;;;6.03;4.40;;;;;;;-12.46;100.00;101494.75;5045941;28;20147;-74
2024/01/12 02:27:45;;;;;;;5.40;4.87;;;;;;;-12.55;100.00;101469.94;5046536;28;20378;-71
2024/01/12 02:30:11;;;;;;;6.97;4.87;;;;;;;-12.59;100.00;101468.25;5040471;28;20080;-73
2024/01/12 02:32:36;;;;;;;4.47;4.07;;;;;;;-12.66;100.00;101462.25;5038896;28;20076;-73
2024/01/12 02:35:02;;;;;;;5.27;4.40;;;;;;;-12.79;100.00;101440.03;5044125;28;20099;-75
2024/01/12 02:37:29;;;;;;;7.72;4.65;;;;;;;-12.78;100.00;101438.31;5051619;28;20154;-73
2024/01/12 02:39:54;;;;;;;7.13;4.57;;;;;;;-12.68;100.00;101443.47;5045712;28;20120;-71
2024/01/12 02:42:20;;;;;;;9.90;5.50;;;;;;;-12.61;100.00;101447.72;5052286;28;20040;-71
2024/01/12 02:44:45;;;;;;;4.67;4.23;;;;;;;-12.58;100.00;101446.88;5042204;28;20041;-72
2024/01/12 02:47:13;;;;;;;9.40;5.00;;;;;;;-12.45;100.00;101466.50;5046024;28;20426;-71
2024/01/12 02:49:38;;;;;;;6.72;5.25;;;;;;;-12.57;100.00;101448.56;5024549;28;20436;-73
2024/01/12 02:52:04;;;;;;;12.73;5.50;;;;;;;-12.76;100.00;101401.53;5049300;28;20043;-72
2024/01/12 02:54:29;;;;;;;9.30;5.10;;;;;;;-12.47;100.00;101446.84;5048027;28;20041;-71
2024/01/12 02:56:55;;;;;;;7.30;5.43;;;;;;;-12.63;100.00;101415.22;5039018;28;20170;-71
2024/01/12 02:59:20;;;;;;;8.10;4.60;;;;;;;-13.41;100.00;101296.47;5042956;28;20499;-74
2024/01/12 03:01:46;;;;;;;7.80;4.50;;;;;;;-12.65;100.00;101416.94;5050196;28;20072;-73
2024/01/12 03:04:12;;;;;;;5.80;5.07;;;;;;;-12.62;100.00;101437.47;5037726;28;20034;-71
2024/01/12 03:06:37;;;;;;;5.97;5.10;;;;;;;-12.72;100.00;101425.47;5039061;28;20072;-71
2024/01/12 03:09:03;;;;;;;9.20;5.00;;;;;;;-12.80;100.00;101399.84;5042705;28;20041;-72
2024/01/12 03:11:28;;;;;;;6.03;4.97;;;;;;;-12.61;100.00;101428.91;5047890;28;20068;-72
2024/01/12 03:13:54;;;;;;;5.80;4.33;;;;;;;-12.82;100.00;101389.56;5041164;28;20095;-72
2024/01/12 03:16:23;;;;;;;7.47;5.90;;;;;;;-12.66;100.00;101400.69;5039079;28;20103;-72
2024/01/12 03:18:49;;;;;;;8.48;5.30;;;;;;;-12.65;100.00;101401.56;5036958;28;20048;-72
2024/01/12 03:21:16;;;;;;;6.37;4.93;;;;;;;-13.27;100.00;101305.91;5038319;28;20040;-74
2024/01/12 03:23:41;;;;;;;8.13;4.95;;;;;;;-12.64;100.00;101416.94;5042326;28;20551;-74
2024/01/12 03:26:07;;;;;;;13.00;5.63;;;;;;;-12.78;100.00;101382.72;5037230;28;20037;-74
2024/01/12 03:28:34;;;;;;;7.07;4.70;;;;;;;-12.83;100.00;101359.66;5043875;28;20041;-76
2024/01/12 03:31:01;;;;;;;6.82;4.90;;;;;;;-12.56;100.00;101404.09;5045500;28;20044;-72
2024/01/12 03:33:26;;;;;;;6.10;5.50;;;;;;;-12.93;100.00;101328.91;5044967;28;20037;-74
2024/01/12 03:35:52;;;;;;;6.33;4.50;;;;;;;-12.66;100.00;101363.94;5039212;28;20499;-74
2024/01/12 03:38:17;;;;;;;9.80;6.97;;;;;;;-12.51;100.00;101385.25;5039085;28;20052;-74
2024/01/12 03:40:43;;;;;;;5.50;4.93;;;;;;;-12.48;100.00;101370.72;5049710;28;20093;-73
2024/01/12 03:43:08;;;;;;;9.67;7.87;;;;;;;-12.48;100.00;101373.28;5041928;28;20041;-73
2024/01/12 03:45:34;;;;;;;10.87;5.50;;;;;;;-12.44;100.00;101388.66;5045822;28;20124;-74
2024/01/12 03:47:59;;;;;;;12.73;6.77;;;;;;;-12.37;100.00;101392.94;5045221;28;20033;-74
2024/01/12 03:50:25;;;;;;;9.47;5.20;;;;;;;-12.45;100.00;101384.41;5051836;28;20032;-73
2024/01/12 03:52:50;;;;;;;6.43;5.00;;;;;;;-12.50;100.00;101360.47;5045549;28;20094;-71
2024/01/12 03:55:16;;;;;;;8.43;5.00;;;;;;;-12.32;100.00;101391.22;5045243;28;20037;-72
2024/01/12 03:57:42;;;;;;;8.10;7.27;;;;;;;-12.39;100.00;101379.28;5042457;28;20045;-74
2024/01/12 04:00:08;;;;;;;11.63;6.57;;;;;;;-12.51;100.00;101351.06;5043429;28;20406;-73
2024/01/12 04:02:34;;;;;;;13.55;6.22;;;;;;;-12.55;100.00;101375.88;5042971;28;20041;-72
2024/01/12 04:04:59;;;;;;;8.20;5.13;;;;;;;-12.54;100.00;101369.88;5035494;28;20030;-72
2024/01/12 04:07:25;;;;;;;9.70;5.83;;;;;;;-12.77;100.00;101311.78;5045782;28;20037;-73
2024/01/12 04:09:50;;;;;;;8.77;5.43;;;;;;;-12.45;100.00;101345.91;5044583;28;20201;-73
2024/01/12 04:12:16;;;;;;;5.30;4.80;;;;;;;-12.34;100.00;101341.63;5037158;28;20507;-71
2024/01/12 04:14:48;;;;;;;6.10;5.50;;;;;;;-12.36;100.00;101327.06;5048023;28;20041;-71
2024/01/12 04:17:16;;;;;;;8.20;4.82;;;;;;;-12.43;100.00;101310.84;5045796;28;20061;-73
2024/01/12 04:19:42;;;;;;;6.82;6.13;;;;;;;-12.18;100.00;101326.13;5040627;28;20048;-71
2024/01/12 04:22:07;;;;;;;8.93;7.17;;;;;;;-12.47;100.00;101290.31;5039535;28;20041;-72
2024/01/12 04:24:33;;;;;;;7.63;7.03;;;;;;;-12.49;100.00;101277.50;5035899;28;20028;-73
2024/01/12 04:26:59;;;;;;;5.20;3.93;;;;;;;-12.58;100.00;101280.94;5037003;28;20033;-72
2024/01/12 04:29:27;;;;;;;7.87;4.57;;;;;;;-12.13;100.00;101319.28;5043542;28;20033;-72
2024/01/12 04:31:52;;;;;;;10.15;7.20;;;;;;;-12.21;100.00;101304.75;5038408;28;20378;-72
2024/01/12 04:34:18;;;;;;;6.47;4.73;;;;;;;-12.32;100.00;101277.44;5048766;28;20068;-71
2024/01/12 04:36:43;;;;;;;5.97;5.37;;;;;;;-12.09;100.00;101315.84;5046213;28;20444;-72
2024/01/12 04:39:09;;;;;;;7.03;4.63;;;;;;;-12.07;100.00;101324.41;5042534;28;20639;-71
2024/01/12 04:41:34;;;;;;;9.33;6.47;;;;;;;-12.21;100.00;101302.19;5048876;28;20046;-75
2024/01/12 04:44:00;;;;;;;6.00;5.40;;;;;;;-12.15;100.00;101311.56;5045116;28;20041;-72
2024/01/12 04:46:26;;;;;;;11.23;5.40;;;;;;;-12.32;100.00;101309.09;5045977;28;20086;-73
2024/01/12 04:48:51;;;;;;;8.40;5.70;;;;;;;-12.30;100.00;101283.41;5045096;28;20389;-70
2024/01/12 04:51:18;;;;;;;6.73;6.10;;;;;;;-12.27;100.00;101296.22;5034246;28;20064;-70
2024/01/12 04:53:43;;;;;;;7.47;4.88;;;;;;;-12.26;100.00;101313.34;5051503;28;20074;-71
2024/01/12 04:56:09;;;;;;;12.60;6.60;;;;;;;-12.43;100.00;101294.56;5046087;28;20401;-70
2024/01/12 04:58:34;;;;;;;6.80;5.73;;;;;;;-12.36;100.00;101312.53;5045865;28;20065;-69
2024/01/12 05:01:00;;;;;;;6.70;6.10;;;;;;;-12.45;100.00;101304.84;5053147;28;20068;-70
2024/01/12 05:03:25;;;;;;;9.33;6.30;;;;;;;-12.69;100.00;101271.59;5047685;28;20051;-67
2024/01/12 05:05:51;;;;;;;12.67;6.70;;;;;;;-12.48;100.00;101312.56;5049875;28;20577;-68
2024/01/12 05:08:16;;;;;;;6.43;5.83;;;;;;;-12.68;100.00;101284.41;5050252;28;20045;-69
2024/01/12 05:10:42;;;;;;;6.73;5.77;;;;;;;-12.72;100.00;101264.75;5054004;28;20032;-68
2024/01/12 05:13:07;;;;;;;7.33;6.20;;;;;;;-12.44;100.00;101303.13;5046806;28;20186;-68
2024/01/12 05:15:33;;;;;;;15.23;7.20;;;;;;;-12.48;100.00;101286.03;5041783;28;20428;-73
2024/01/12 05:17:59;;;;;;;7.63;5.87;;;;;;;-12.39;100.00;101292.00;5049418;28;20044;-70
2024/01/12 05:20:25;;;;;;;17.42;11.60;;;;;;;-12.61;100.00;101264.72;5043581;28;20037;-70
2024/01/12 05:22:51;;;;;;;7.60;6.87;;;;;;;-12.49;100.00;101295.44;5043237;28;20393;-71
2024/01/12 05:25:16;;;;;;;10.87;7.23;;;;;;;-12.50;100.00;101288.63;5042143;28;20087;-69
2024/01/12 05:27:42;;;;;;;9.60;7.00;;;;;;;-12.51;100.00;101292.88;5048644;28;20036;-70
2024/01/12 05:30:09;;;;;;;12.13;6.50;;;;;;;-13.62;100.00;101084.72;5046091;28;20041;-72
2024/01/12 05:32:34;;;;;;;11.20;7.03;;;;;;;-12.45;100.00;101276.63;5039050;28;20057;-73
2024/01/12 05:35:00;;;;;;;9.80;6.57;;;;;;;-12.51;100.00;101256.13;5049018;28;20128;-72
2024/01/12 05:37:26;;;;;;;10.98;6.78;;;;;;;-12.53;100.00;101263.81;5047784;28;20096;-71
2024/01/12 05:39:51;;;;;;;7.40;6.43;;;;;;;-12.44;100.00;101268.06;5055325;28;20069;-72
2024/01/12 05:42:17;;;;;;;13.67;7.63;;;;;;;-12.47;100.00;101269.78;5050096;28;20042;-70
2024/01/12 05:44:43;;;;;;;14.53;6.47;;;;;;;-12.68;100.00;101232.25;5051061;28;20389;-70
2024/01/12 05:47:08;;;;;;;9.73;5.72;;;;;;;-12.54;100.00;101259.56;5036164;28;20052;-68
2024/01/12 05:49:36;;;;;;;9.90;6.33;;;;;;;-12.53;100.00;101265.53;5044870;28;20489;-67
2024/01/12 05:52:03;;;;;;;11.45;5.97;;;;;;;-12.51;100.00;101266.38;5044973;28;20033;-69
2024/01/12 05:54:28;;;;;;;8.65;5.80;;;;;;;-12.54;100.00;101254.41;5045902;28;20402;-70
2024/01/12 05:56:54;;;;;;;8.97;5.50;;;;;;;-12.53;100.00;101258.69;5061654;28;20029;-68
2024/01/12 05:59:19;;;;;;;9.17;6.07;;;;;;;-12.56;100.00;101268.13;5048700;28;20022;-71
2024/01/12 06:01:46;;;;;;;6.93;5.50;;;;;;;-12.79;100.00;101219.44;5055546;28;20045;-71
2024/01/12 06:04:12;;;;;;;8.32;5.57;;;;;;;-12.74;100.00;101217.72;5062168;28;20049;-74
2024/01/12 06:06:40;;;;;;;7.18;5.60;;;;;;;-12.55;100.00;101241.59;5061458;28;20530;-69
2024/01/12 06:09:06;;;;;;;6.77;6.00;;;;;;;-12.70;100.00;101211.75;5060325;28;20037;-71
2024/01/12 06:11:31;;;;;;;12.63;7.17;;;;;;;-12.75;100.00;101195.50;5055159;28;20314;-73
2024/01/12 06:13:57;;;;;;;6.60;5.17;;;;;;;-12.58;100.00;101224.50;5056285;28;20093;-70
2024/01/12 06:16:26;;;;;;;8.47;6.53;;;;;;;-13.13;100.00;101146.91;5043153;28;20057;-70
2024/01/12 06:18:52;;;;;;;13.60;6.70;;;;;;;-12.42;100.00;101245.84;5045461;28;20041;-67
2024/01/12 06:21:17;;;;;;;9.13;5.43;;;;;;;-12.57;100.00;101245.88;5038590;28;20033;-69
2024/01/12 06:23:43;;;;;;;8.60;5.30;;;;;;;-12.63;100.00;101230.53;5046776;28;20523;-70
2024/01/12 06:26:08;;;;;;;6.30;5.70;;;;;;;-12.83;100.00;101213.47;5046836;28;20041;-73
2024/01/12 06:28:34;;;;;;;11.50;5.43;;;;;;;-12.86;100.00;101222.91;5046113;28;20086;-69
2024/01/12 06:30:59;;;;;;;8.47;5.33;;;;;;;-12.78;100.00;101236.53;5050051;28;20535;-69
2024/01/12 06:33:25;;;;;;;7.60;4.70;;;;;;;-12.73;100.00;101223.69;5040486;28;20041;-67
2024/01/12 06:35:50;;;;;;;9.87;5.97;;;;;;;-12.55;100.00;101233.91;5046172;28;20045;-67
2024/01/12 06:38:16;;;;;;;8.13;5.77;;;;;;;-12.53;100.00;101237.31;5052239;28;20145;-67
2024/01/12 06:40:45;;;;;;;12.13;6.25;;;;;;;-12.73;100.00;101216.00;5026494;28;20048;-68
2024/01/12 06:43:10;;;;;;;9.67;6.83;;;;;;;-12.70;100.00;101218.59;5043944;28;20041;-69
2024/01/12 06:45:36;;;;;;;9.17;6.03;;;;;;;-12.67;100.00;101216.00;5050623;28;20065;-69
2024/01/12 06:48:01;;;;;;;7.03;6.43;;;;;;;-12.62;100.00;101214.28;5042734;28;20044;-69
2024/01/12 06:50:28;;;;;;;10.33;5.90;;;;;;;-12.69;100.00;101195.50;5043940;28;20039;-70
2024/01/12 06:52:55;;;;;;;8.65;6.25;;;;;;;-12.60;100.00;101215.13;5046962;28;20033;-68
2024/01/12 06:55:21;;;;;;;7.68;5.65;;;;;;;-13.52;100.00;101056.56;5035869;28;20032;-69
2024/01/12 06:57:47;;;;;;;9.87;5.80;;;;;;;-12.66;100.00;101197.19;5041471;28;20487;-67
2024/01/12 07:00:13;;;;;;;11.87;6.93;;;;;;;-12.48;100.00;101225.31;5042070;28;20096;-66
2024/01/12 07:02:38;;;;;;;11.82;7.70;;;;;;;-12.39;100.00;101225.28;5043186;28;20041;-67
2024/01/12 07:05:04;;;;;;;8.33;6.67;;;;;;;-12.34;100.00;101231.25;5043280;28;20043;-70
2024/01/12 07:07:30;;;;;;;11.45;6.25;;;;;;;-12.41;100.00;101206.47;5024776;28;20037;-67
2024/01/12 07:09:55;;;;;;;12.20;6.50;;;;;;;-12.53;100.00;101186.00;5032988;28;20064;-69
2024/01/12 07:12:21;;;;;;;9.80;5.90;;;;;;;-12.34;100.00;101223.53;5038166;28;20041;-69
2024/01/12 07:14:46;;;;;;;7.33;5.40;;;;;;;-12.39;100.00;101230.41;5043102;28;20060;-67
2024/01/12 07:17:16;;;;;;;9.93;6.23;;;;;;;-12.37;100.00;101238.97;5040237;28;20100;-69
2024/01/12 07:19:44;;;;;;;10.65;6.38;;;;;;;-12.58;100.00;101203.13;5041273;28;20051;-69
2024/01/12 07:22:09;;;;;;;8.00;6.65;;;;;;;-12.47;100.00;101232.16;5040165;28;20045;-67
2024/01/12 07:24:35;;;;;;;7.57;5.50;;;;;;;-12.60;100.00;101209.97;5037915;28;20397;-67
2024/01/12 07:27:00;;;;;;;9.20;7.27;;;;;;;-12.68;100.00;101199.75;5042247;28;20497;-70
2024/01/12 07:29:26;;;;;;;14.83;8.17;;;;;;;-12.64;100.00;101221.13;5074604;28;20040;-71
2024/01/12 07:31:51;;;;;;;9.63;6.27;;;;;;;-12.59;100.00;101227.94;5044412;28;20091;-70
2024/01/12 07:34:17;;;;;;;12.40;6.40;;;;;;;-12.84;100.00;101190.41;5036745;28;20126;-69
2024/01/12 07:36:43;;;;;;;8.93;5.63;;;;;;;-12.64;100.00;101216.00;5039380;28;20196;-67
2024/01/12 07:39:09;;;;;;;9.20;6.22;;;;;;;-12.56;100.00;101211.66;5044050;28;20045;-68
2024/01/12 07:41:35;;;;;;;10.25;7.05;;;;;;;-12.34;100.00;101228.69;5035917;28;20033;-67
2024/01/12 07:44:01;;;;;;;9.20;6.53;;;;;;;-12.17;100.00;101230.28;5042170;28;20071;-69
2024/01/12 07:46:27;;;;;;;27.83;11.63;;;;;;;-12.12;100.00;101208.03;5046248;28;20161;-69
2024/01/12 07:48:54;;;;;;;9.95;6.45;;;;;;;-12.12;100.00;101201.19;5043074;28;20063;-68
2024/01/12 07:51:20;;;;;;;22.85;9.48;;;;;;;-11.95;100.00;101211.31;5044068;28;20040;-68
2024/01/12 07:53:45;;;;;;;8.73;6.60;;;;;;;-11.93;100.00;101207.88;5043497;28;20408;-67
2024/01/12 07:56:11;;;;;;;12.87;7.00;;;;;;;-11.99;100.00;101204.50;5032196;28;20052;-67
2024/01/12 07:58:38;;;;;;;13.77;6.75;;;;;;;-11.98;100.00;101195.94;5026630;28;20041;-71
2024/01/12 08:01:05;;;;;;;13.87;6.70;;;;;;;-12.02;100.00;101186.56;5044191;28;20132;-69
2024/01/12 08:03:32;;;;;;;9.85;6.43;;;;;;;-12.29;100.00;101128.56;5048073;28;20032;-70
2024/01/12 08:05:57;;;;;;;12.52;8.10;;;;;;;-12.22;100.00;101127.63;5043824;28;20045;-69
2024/01/12 08:08:23;;;;;;;11.83;8.23;;;;;;;-11.91;100.00;101201.00;5041547;28;20043;-70
2024/01/12 08:10:48;;;;;;;7.73;6.67;;;;;;;-11.96;100.00;101212.19;5045501;28;20107;-67
2024/01/12 08:13:14;;;;;;;13.17;7.97;;;;;;;-12.05;100.00;101217.41;5046254;28;20497;-68
2024/01/12 08:15:40;;;;;;;10.97;5.77;;;;;;;-12.00;100.00;101223.34;5036522;28;20110;-68
2024/01/12 08:18:07;;;;;;;13.98;7.72;;;;;;;-12.17;100.00;101184.06;5042807;28;20417;-70
2024/01/12 08:20:33;;;;;;;12.35;7.88;;;;;;;-11.93;100.00;101212.16;5043151;28;20049;-72
2024/01/12 08:22:59;;;;;;;15.30;8.65;;;;;;;-11.90;100.00;101204.44;5043511;28;20034;-70
2024/01/12 08:25:24;;;;;;;19.70;8.40;;;;;;;-11.84;100.00;101199.28;5042700;28;20063;-68
2024/01/12 08:27:50;;;;;;;11.13;8.13;;;;;;;-11.69;100.00;101206.81;5043426;28;20504;-68
2024/01/12 08:30:15;;;;;;;26.67;8.07;;;;;;;-11.53;100.00;101217.00;5039730;28;20032;-68
2024/01/12 08:32:41;;;;;;;10.17;8.03;;;;;;;-11.42;100.00;101225.44;5042697;28;20045;-67
2024/01/12 08:35:07;;;;;;;16.43;9.37;;;;;;;-11.41;100.00;101230.56;5046518;28;20056;-69
2024/01/12 08:37:32;;;;;;;22.17;10.07;;;;;;;-11.59;100.00;101216.16;5052558;28;20171;-69
2024/01/12 08:39:58;;;;;;;11.90;7.90;;;;;;;-11.63;100.00;101214.47;5053030;28;20271;-68
2024/01/12 08:42:24;;;;;;;18.20;9.43;;;;;;;-11.61;100.00;101215.31;5052176;28;20163;-68
2024/01/12 08:44:49;;;;;;;21.37;10.53;;;;;;;-11.76;100.00;101197.47;5051232;28;20033;-68
2024/01/12 08:47:15;;;;;;;12.87;9.03;;;;;;;-11.59;100.00;101223.84;5051976;28;20182;-68
2024/01/12 08:49:41;;;;;;;17.03;10.27;;;;;;;-11.59;100.00;101205.88;5052177;28;20579;-69
2024/01/12 08:52:06;;;;;;;23.47;9.13;;;;;;;-11.48;100.00;101221.22;5052049;28;20029;-69
2024/01/12 08:54:32;;;;;;;17.10;9.70;;;;;;;-11.48;100.00;101207.50;5052096;28;20587;-71
2024/01/12 08:56:57;;;;;;;17.10;10.00;;;;;;;-11.39;100.00;101207.41;5052002;28;20048;-70
2024/01/12 08:59:23;;;;;;;10.10;7.27;;;;;;;-11.38;100.00;101193.69;5052135;28;20484;-69
2024/01/12 09:01:49;;;;;;;17.40;8.53;;;;;;;-11.41;100.00;101192.00;5050988;28;20094;-69
2024/01/12 09:04:14;;;;;;;14.40;9.13;;;;;;;-11.47;100.00;101184.38;5052816;28;20119;-69
2024/01/12 09:06:40;;;;;;;21.87;10.53;;;;;;;-11.60;100.00;101160.47;5058142;28;20507;-68
2024/01/12 09:09:05;;;;;;;18.27;9.60;;;;;;;-11.57;100.00;101157.88;5060033;28;20033;-67
2024/01/12 09:11:31;;;;;;;19.10;10.13;;;;;;;-11.53;100.00;101174.16;5058360;28;20033;-68
2024/01/12 09:13:56;;;;;;;18.70;9.77;;;;;;;-11.61;100.00;101165.63;5063913;28;20064;-68
2024/01/12 09:16:22;;;;;;;19.63;11.33;;;;;;;-11.89;100.00;101142.78;5068661;28;20450;-67
2024/01/12 09:18:52;;;;;;;14.00;9.38;;;;;;;-11.53;100.00;101199.00;5064409;28;20053;-68
2024/01/12 09:21:18;;;;;;;18.58;8.90;;;;;;;-11.62;100.00;101169.91;5066080;28;20047;-69
2024/01/12 09:23:43;;;;;;;12.90;7.83;;;;;;;-11.76;100.00;101150.38;5062538;28;20045;-68
2024/01/12 09:26:10;;;;;;;10.83;6.40;;;;;;;-11.49;100.00;101196.38;5061534;28;20112;-69
2024/01/12 09:28:37;;;;;;;10.40;7.53;;;;;;;-11.68;100.00;101193.09;5062456;28;20048;-70
2024/01/12 09:31:03;;;;;;;12.27;7.50;;;;;;;-11.64;100.00;101202.50;5057545;28;20128;-69
2024/01/12 09:33:29;;;;;;;14.00;7.75;;;;;;;-11.61;100.00;101204.19;5055376;28;20033;-70
2024/01/12 09:35:54;;;;;;;12.80;6.87;;;;;;;-11.68;100.00;101169.97;5051305;28;20037;-67
2024/01/12 09:38:20;;;;;;;9.27;7.13;;;;;;;-11.50;100.00;101188.69;5051629;28;20156;-69
2024/01/12 09:40:47;;;;;;;10.23;6.43;;;;;;;-11.57;100.00;101181.00;5051579;28;20044;-67
2024/01/12 09:43:14;;;;;;;12.48;7.85;;;;;;;-11.61;100.00;101199.91;5051601;28;20044;-68
2024/01/12 09:45:44;;;;;;;10.63;6.68;;;;;;;-11.82;100.00;101151.31;5051808;28;20037;-69
2024/01/12 09:48:11;;;;;;;12.40;7.82;;;;;;;-11.74;100.00;101180.31;5050060;28;20065;-69
2024/01/12 09:50:38;;;;;;;12.68;7.55;;;;;;;-12.02;100.00;101141.19;5051450;28;20052;-67
2024/01/12 09:53:05;;;;;;;18.63;9.38;;;;;;;-11.90;100.00;101181.31;5049806;28;20036;-68
2024/01/12 09:55:30;;;;;;;19.20;7.75;;;;;;;-11.98;100.00;101142.00;5049750;28;20033;-72
2024/01/12 09:57:56;;;;;;;10.53;8.83;;;;;;;-11.66;100.00;101173.38;5050822;28;20037;-71
2024/01/12 10:00:26;;;;;;;12.52;6.93;;;;;;;-11.59;100.00;101176.75;5050947;28;20029;-66
2024/01/12 10:02:55;;;;;;;12.68;7.80;;;;;;;-11.62;100.00;101149.38;5051270;28;20041;-69
2024/01/12 10:05:22;;;;;;;30.02;8.60;;;;;;;-11.48;100.00;101151.81;5050095;28;20385;-68
2024/01/12 10:07:47;;;;;;;14.15;10.40;;;;;;;-11.43;100.00;101149.19;5051007;28;20079;-69
2024/01/12 10:10:13;;;;;;;18.83;8.77;;;;;;;-11.36;100.00;101173.97;5051530;28;20036;-70
2024/01/12 10:12:38;;;;;;;15.60;8.83;;;;;;;-11.47;100.00;101163.81;5053063;28;20069;-68
2024/01/12 10:15:09;;;;;;;20.27;9.27;;;;;;;-11.46;100.00;101172.38;5049398;28;20086;-66
2024/01/12 10:17:36;;;;;;;11.98;8.70;;;;;;;-11.47;100.00;101180.94;5051030;28;20130;-65
2024/01/12 10:20:05;;;;;;;9.30;7.10;;;;;;;-11.68;100.00;101139.16;5051854;28;20041;-70
2024/01/12 10:22:31;;;;;;;13.17;7.80;;;;;;;-11.73;100.00;101140.91;5053813;28;20037;-69
2024/01/12 10:24:58;;;;;;;12.57;7.60;;;;;;;-11.42;100.00;101168.91;5054611;28;20382;-69
2024/01/12 10:27:24;;;;;;;12.13;7.50;;;;;;;-11.87;100.00;101099.09;5054638;28;20040;-74
2024/01/12 10:29:50;;;;;;;10.43;6.97;;;;;;;-11.48;100.00;101172.38;5052940;28;20036;-68
2024/01/12 10:32:21;;;;;;;12.63;9.27;;;;;;;-11.38;100.00;101183.41;5053071;28;20495;-69
2024/01/12 10:34:47;;;;;;;15.68;7.60;;;;;;;-11.71;100.00;101122.91;5053401;28;20040;-69
2024/01/12 10:37:17;;;;;;;16.27;9.30;;;;;;;-11.44;100.00;101162.94;5053464;28;20029;-68
2024/01/12 10:39:48;;;;;;;12.60;9.18;;;;;;;-11.48;100.00;101177.53;5056621;28;20041;-68
2024/01/12 10:42:16;;;;;;;11.40;8.60;;;;;;;-11.58;100.00;101175.88;5053988;28;20032;-70
2024/01/12 10:44:43;;;;;;;19.10;9.63;;;;;;;-11.69;100.00;101168.28;5054257;28;20033;-69
2024/01/12 10:47:19;;;;;;;14.80;9.30;;;;;;;-11.65;100.00;101174.25;5053787;28;20123;-68
2024/01/12 10:49:50;;;;;;;15.55;9.63;;;;;;;-11.53;100.00;101186.16;5052581;28;20048;-67
2024/01/12 10:52:19;;;;;;;14.40;11.00;;;;;;;-11.51;100.00;101192.13;5036244;28;20036;-69
2024/01/12 10:54:56;;;;;;;13.18;9.05;;;;;;;-11.58;100.00;101175.88;5056242;28;20404;-67
2024/01/12 10:57:22;;;;;;;22.10;9.80;;;;;;;-11.53;100.00;101178.44;5055415;28;20049;-68
2024/01/12 10:59:49;;;;;;;17.40;10.17;;;;;;;-11.45;100.00;101186.91;5052945;28;20162;-69
2024/01/12 11:02:14;;;;;;;18.63;11.27;;;;;;;-11.51;100.00;101176.72;5054194;28;20123;-68